createdAt,value
2022-11-28T00:00:37.538Z,21.20
2022-11-28T00:06:06.480Z,20.23
2022-11-28T00:08:35.958Z,22.93
2022-11-28T00:11:05.260Z,18.80
2022-11-28T00:13:32.820Z,18.20
2022-11-28T00:16:02.443Z,19.30
2022-11-28T00:18:30.775Z,17.30
2022-11-28T00:21:00.759Z,20.00
2022-11-28T00:28:51.240Z,17.67
2022-11-28T00:31:21.523Z,21.07
2022-11-28T00:33:50.061Z,22.17
2022-11-28T00:36:18.484Z,17.50
2022-11-28T00:38:46.197Z,20.20
2022-11-28T00:41:15.140Z,17.83
2022-11-28T00:43:44.560Z,16.77
2022-11-28T00:46:14.497Z,22.60
2022-11-28T00:53:49.490Z,18.27
2022-11-28T00:56:19.950Z,18.87
2022-11-28T00:58:49.491Z,22.43
2022-11-28T01:01:21.012Z,19.40
2022-11-28T01:03:50.590Z,22.40
2022-11-28T01:06:23.160Z,20.23
2022-11-28T01:08:52.541Z,23.93
2022-11-28T01:14:21.399Z,19.47
2022-11-28T01:16:51.261Z,24.87
2022-11-28T01:19:18.882Z,21.40
2022-11-28T01:21:46.410Z,20.13
2022-11-28T01:24:16.019Z,22.80
2022-11-28T01:26:44.078Z,21.17
2022-11-28T01:29:12.150Z,22.93
2022-11-28T01:36:43.743Z,21.73
2022-11-28T01:39:11.771Z,25.27
2022-11-28T01:41:40.325Z,22.30
2022-11-28T01:44:29.269Z,24.50
2022-11-28T01:46:56.888Z,21.67
2022-11-28T01:49:29.251Z,19.43
2022-11-28T01:52:01.610Z,22.23
2022-11-28T02:02:05.735Z,20.00
2022-11-28T02:04:35.008Z,20.80
2022-11-28T02:07:02.968Z,20.93
2022-11-28T02:09:30.968Z,20.80
2022-11-28T02:12:12.328Z,18.57
2022-11-28T02:15:00.298Z,18.40
2022-11-28T02:17:39.408Z,21.97
2022-11-28T02:27:47.957Z,20.63
2022-11-28T02:30:18.910Z,24.43
2022-11-28T02:33:06.070Z,22.43
2022-11-28T02:35:41.885Z,24.17
2022-11-28T02:38:18.879Z,21.63
2022-11-28T02:40:54.278Z,22.13
2022-11-28T02:43:28.767Z,21.10
2022-11-28T02:51:52.628Z,20.60
2022-11-28T02:54:22.950Z,22.77
2022-11-28T02:56:52.233Z,20.43
2022-11-28T02:59:31.407Z,21.70
2022-11-28T03:02:00.251Z,23.23
2022-11-28T03:04:34.167Z,22.10
2022-11-28T03:07:13.872Z,24.27
2022-11-28T03:09:56.639Z,25.13
2022-11-28T03:17:43.791Z,23.73
2022-11-28T03:20:21.429Z,24.80
2022-11-28T03:23:01.721Z,22.67
2022-11-28T03:25:34.764Z,20.70
2022-11-28T03:28:10.376Z,26.17
2022-11-28T03:30:44.089Z,28.60
2022-11-28T03:33:15.597Z,23.00
2022-11-28T03:40:52.910Z,24.07
2022-11-28T03:43:25.170Z,22.80
2022-11-28T03:45:57.679Z,24.77
2022-11-28T03:48:28.450Z,20.10
2022-11-28T03:51:03.419Z,23.40
2022-11-28T03:53:36.370Z,26.70
2022-11-28T03:56:13.108Z,24.77
2022-11-28T03:58:46.468Z,23.70
2022-11-28T04:06:57.330Z,23.67
2022-11-28T04:09:47.240Z,25.50
2022-11-28T04:12:24.440Z,20.80
2022-11-28T04:14:58.622Z,26.17
2022-11-28T04:17:42.757Z,25.83
2022-11-28T04:20:16.798Z,26.60
2022-11-28T04:23:04.088Z,22.50
2022-11-28T04:25:37.651Z,23.50
2022-11-28T04:28:16.226Z,24.63
2022-11-28T04:37:54.973Z,24.20
2022-11-28T04:40:25.401Z,27.27
2022-11-28T04:42:56.418Z,25.73
2022-11-28T04:45:28.279Z,25.17
2022-11-28T04:47:56.503Z,29.00
2022-11-28T04:50:31.508Z,26.77
2022-11-28T04:53:06.761Z,31.00
2022-11-28T05:00:37.755Z,27.70
2022-11-28T05:03:06.949Z,29.43
2022-11-28T05:05:43.945Z,24.87
2022-11-28T05:08:12.258Z,24.93
2022-11-28T05:10:40.117Z,28.83
2022-11-28T05:13:07.598Z,31.40
2022-11-28T05:15:36.739Z,28.23
2022-11-28T05:23:09.636Z,28.33
2022-11-28T05:25:39.279Z,29.70
2022-11-28T05:28:06.980Z,32.57
2022-11-28T05:30:41.367Z,31.90
2022-11-28T05:33:09.001Z,31.63
2022-11-28T05:35:43.843Z,33.97
2022-11-28T05:38:13.787Z,31.17
2022-11-28T05:43:53.001Z,30.67
2022-11-28T05:46:20.977Z,33.30
2022-11-28T05:48:49.282Z,31.97
2022-11-28T05:51:19.548Z,31.97
2022-11-28T05:53:46.890Z,33.13
2022-11-28T05:56:16.519Z,29.57
2022-11-28T05:58:44.917Z,34.17
2022-11-28T06:06:20.072Z,29.57
2022-11-28T06:08:51.918Z,34.10
2022-11-28T06:11:21.245Z,28.30
2022-11-28T06:13:49.881Z,32.93
2022-11-28T06:16:19.997Z,31.37
2022-11-28T06:18:47.537Z,33.10
2022-11-28T06:21:16.408Z,34.50
2022-11-28T06:29:06.018Z,29.53
2022-11-28T06:31:33.821Z,33.37
2022-11-28T06:34:01.459Z,32.27
2022-11-28T06:36:30.240Z,33.93
2022-11-28T06:38:57.550Z,31.23
2022-11-28T06:41:25.240Z,31.80
2022-11-28T06:43:52.569Z,33.57
2022-11-28T06:52:17.840Z,33.13
2022-11-28T06:55:10.968Z,33.40
2022-11-28T06:58:06.250Z,29.70
2022-11-28T07:00:35.833Z,33.53
2022-11-28T07:03:05.232Z,31.07
2022-11-28T07:08:40.737Z,31.97
2022-11-28T07:11:34.277Z,29.60
2022-11-28T07:14:12.151Z,33.00
2022-11-28T07:16:55.594Z,36.57
2022-11-28T07:27:25.539Z,32.77
2022-11-28T07:29:53.687Z,34.20
2022-11-28T07:32:21.017Z,32.00
2022-11-28T07:34:50.272Z,34.27
2022-11-28T07:37:18.447Z,29.37
2022-11-28T07:39:49.437Z,35.00
2022-11-28T07:42:17.124Z,29.77
2022-11-28T07:52:44.921Z,32.17
2022-11-28T07:55:12.427Z,30.10
2022-11-28T07:57:41.968Z,39.13
2022-11-28T08:00:10.552Z,33.60
2022-11-28T08:02:40.200Z,38.70
2022-11-28T08:05:07.910Z,30.33
2022-11-28T08:07:35.720Z,33.17
2022-11-28T08:12:45.690Z,34.80
2022-11-28T08:15:13.084Z,39.17
2022-11-28T08:17:40.796Z,27.73
2022-11-28T08:20:09.987Z,31.87
2022-11-28T08:22:37.687Z,28.87
2022-11-28T08:25:05.632Z,30.93
2022-11-28T08:27:33.447Z,33.03
2022-11-28T08:30:01.880Z,33.60
2022-11-28T08:37:35.099Z,30.60
2022-11-28T08:40:02.888Z,32.50
2022-11-28T08:42:30.830Z,32.53
2022-11-28T08:44:58.108Z,30.90
2022-11-28T08:47:25.560Z,32.03
2022-11-28T08:49:53.618Z,31.47
2022-11-28T08:52:23.120Z,32.80
2022-11-28T08:58:14.303Z,35.60
2022-11-28T09:00:43.227Z,33.20
2022-11-28T09:03:15.021Z,37.80
2022-11-28T09:05:42.740Z,27.60
2022-11-28T09:08:12.018Z,32.23
2022-11-28T09:10:42.231Z,27.07
2022-11-28T09:13:11.850Z,27.10
2022-11-28T09:18:27.324Z,28.80
2022-11-28T09:20:58.750Z,33.77
2022-11-28T09:23:26.299Z,26.30
2022-11-28T09:25:55.193Z,31.70
2022-11-28T09:28:22.767Z,27.07
2022-11-28T09:30:50.299Z,31.63
2022-11-28T09:33:17.660Z,26.67
2022-11-28T09:38:20.381Z,28.43
2022-11-28T09:40:49.388Z,28.30
2022-11-28T09:43:22.088Z,27.23
2022-11-28T09:45:52.874Z,31.70
2022-11-28T09:48:28.300Z,25.93
2022-11-28T09:51:01.612Z,22.07
2022-11-28T09:53:37.298Z,25.30
2022-11-28T09:59:17.058Z,22.10
2022-11-28T10:01:51.610Z,25.03
2022-11-28T10:04:26.346Z,31.77
2022-11-28T10:07:05.860Z,21.73
2022-11-28T10:09:44.875Z,27.63
2022-11-28T10:12:28.760Z,21.40
2022-11-28T10:15:10.820Z,23.20
2022-11-28T10:22:20.081Z,19.50
2022-11-28T10:24:52.194Z,28.07
2022-11-28T10:27:26.921Z,24.07
2022-11-28T10:29:59.212Z,18.87
2022-11-28T10:32:34.167Z,21.57
2022-11-28T10:35:07.628Z,24.03
2022-11-28T10:37:39.347Z,19.30
2022-11-28T10:45:27.238Z,19.33
2022-11-28T10:48:41.028Z,18.33
2022-11-28T10:51:32.268Z,20.57
2022-11-28T10:54:14.078Z,20.23
2022-11-28T10:56:52.128Z,16.60
2022-11-28T10:59:31.020Z,18.13
2022-11-28T11:07:37.178Z,23.63
2022-11-28T11:10:16.400Z,18.43
2022-11-28T11:12:44.878Z,22.20
2022-11-28T11:15:18.505Z,20.93
2022-11-28T11:17:46.028Z,24.60
2022-11-28T11:20:36.590Z,19.13
2022-11-28T11:23:20.180Z,21.60
2022-11-28T11:31:00.960Z,20.23
2022-11-28T11:33:33.950Z,19.17
2022-11-28T11:36:04.730Z,17.63
2022-11-28T11:38:38.089Z,15.50
2022-11-28T11:41:28.340Z,20.93
2022-11-28T11:43:58.171Z,17.97
2022-11-28T11:46:27.394Z,22.67
2022-11-28T11:54:05.560Z,17.67
2022-11-28T11:56:37.650Z,20.77
2022-11-28T11:59:15.757Z,17.60
2022-11-28T12:01:50.928Z,21.07
2022-11-28T12:04:44.702Z,17.50
2022-11-28T12:07:22.531Z,20.53
2022-11-28T12:09:55.320Z,21.73
2022-11-28T12:17:57.172Z,20.33
2022-11-28T12:20:44.950Z,21.23
2022-11-28T12:23:33.360Z,18.97
2022-11-28T12:26:10.231Z,28.20
2022-11-28T12:28:49.502Z,19.03
2022-11-28T12:31:25.650Z,23.90
2022-11-28T12:34:10.398Z,27.93
2022-11-28T12:39:31.298Z,24.20
2022-11-28T12:42:25.458Z,29.47
2022-11-28T12:45:20.860Z,23.20
2022-11-28T12:47:55.681Z,18.60
2022-11-28T12:50:34.337Z,24.57
2022-11-28T12:53:33.950Z,35.10
2022-11-28T12:56:12.871Z,21.97
2022-11-28T13:03:42.688Z,27.37
2022-11-28T13:06:26.191Z,23.60
2022-11-28T13:09:04.911Z,23.30
2022-11-28T13:11:51.838Z,25.13
2022-11-28T13:14:27.821Z,27.47
2022-11-28T13:16:57.470Z,23.37
2022-11-28T13:19:44.583Z,23.43
2022-11-28T13:28:20.421Z,22.13
2022-11-28T13:30:55.313Z,22.73
2022-11-28T13:33:43.772Z,26.67
2022-11-28T13:39:18.179Z,27.27
2022-11-28T13:47:48.364Z,30.83
2022-11-28T13:50:38.891Z,31.87
2022-11-28T13:53:26.698Z,33.57
2022-11-28T13:56:23.771Z,32.20
2022-11-28T13:58:56.571Z,37.63
2022-11-28T14:01:25.540Z,32.93
2022-11-28T14:07:07.076Z,32.70
2022-11-28T14:09:50.037Z,54.53
2022-11-28T14:12:23.331Z,33.30
2022-11-28T14:15:07.632Z,66.53
2022-11-28T14:17:51.450Z,68.37
2022-11-28T14:20:30.580Z,189.97
2022-11-28T14:23:16.748Z,63.40
2022-11-28T14:30:53.436Z,57.73
2022-11-28T14:33:31.298Z,157.37
2022-11-28T14:36:21.088Z,114.30
2022-11-28T14:39:02.318Z,254.13
2022-11-28T14:41:30.249Z,84.63
2022-11-28T14:44:43.807Z,149.50
2022-11-28T14:47:18.000Z,143.63
2022-11-28T15:06:29.275Z,187.20
2022-11-28T15:09:06.847Z,138.77
2022-11-28T15:11:49.088Z,119.30
2022-11-28T15:14:24.682Z,255.20
2022-11-28T15:17:01.082Z,101.00
2022-11-28T15:20:29.900Z,82.50
2022-11-28T15:23:02.368Z,273.37
2022-11-28T15:26:06.799Z,192.73
2022-11-28T15:28:45.518Z,184.33
2022-11-28T15:31:47.204Z,202.50
2022-11-28T15:52:43.903Z,58.70
2022-11-28T15:59:55.611Z,25.57
2022-11-28T16:07:29.626Z,26.67
2022-11-28T16:18:33.941Z,22.10
2022-11-28T16:37:38.751Z,11.73
2022-11-28T16:43:34.982Z,13.63
2022-11-28T16:46:10.217Z,18.23
2022-11-28T16:48:52.390Z,16.23
2022-11-28T16:51:37.294Z,14.63
2022-11-28T16:54:34.558Z,15.77
2022-11-28T16:57:11.462Z,17.90
2022-11-28T16:59:42.118Z,67.47
2022-11-28T17:08:26.073Z,204.87
2022-11-28T17:15:20.926Z,113.07
2022-11-28T17:18:28.200Z,96.30
2022-11-28T17:21:46.488Z,149.20
2022-11-28T17:25:17.391Z,161.30
2022-11-28T17:28:25.249Z,292.57
2022-11-28T17:31:56.872Z,256.43
2022-11-28T17:34:34.469Z,123.70
2022-11-28T17:37:07.189Z,235.77
2022-11-28T17:40:12.028Z,88.63
2022-11-28T17:45:23.398Z,249.07
2022-11-28T17:47:54.367Z,172.77
2022-11-28T17:50:27.499Z,472.80
2022-11-28T17:52:57.900Z,310.57
2022-11-28T17:55:28.870Z,173.17
2022-11-28T17:58:01.556Z,250.50
2022-11-28T18:00:35.591Z,119.07
2022-11-28T18:08:04.967Z,63.27
2022-11-28T18:10:33.406Z,37.37
2022-11-28T18:13:01.418Z,29.63
2022-11-28T18:15:29.736Z,26.83
2022-11-28T18:17:57.669Z,18.37
2022-11-28T18:20:29.448Z,19.80
2022-11-28T18:22:56.908Z,19.10
2022-11-28T18:25:30.687Z,21.53
2022-11-28T18:36:07.716Z,17.00
2022-11-28T18:38:36.247Z,24.40
2022-11-28T18:41:06.628Z,15.63
2022-11-28T18:43:35.727Z,19.73
2022-11-28T18:46:06.138Z,18.37
2022-11-28T18:48:35.576Z,20.27
2022-11-28T18:51:12.797Z,17.70
2022-11-28T18:53:42.136Z,21.03
2022-11-28T19:02:19.113Z,19.77
2022-11-28T19:04:51.380Z,20.07
2022-11-28T19:07:25.307Z,18.93
2022-11-28T19:09:55.975Z,21.57
2022-11-28T19:12:25.101Z,20.20
2022-11-28T19:15:01.573Z,15.30
2022-11-28T19:17:31.548Z,17.20
2022-11-28T19:27:33.889Z,12.93
2022-11-28T19:30:06.341Z,19.30
2022-11-28T19:32:35.928Z,13.77
2022-11-28T19:35:05.227Z,17.53
2022-11-28T19:37:34.246Z,14.47
2022-11-28T19:40:04.568Z,17.23
2022-11-28T19:42:34.968Z,13.13
2022-11-28T19:47:51.689Z,19.13
2022-11-28T19:50:22.349Z,16.83
2022-11-28T19:52:52.817Z,61.77
2022-11-28T19:55:23.125Z,41.60
2022-11-28T19:57:53.537Z,25.53
2022-11-28T20:00:24.949Z,39.63
2022-11-28T20:02:57.707Z,25.17
2022-11-28T20:05:28.516Z,19.00
2022-11-28T20:13:52.180Z,20.07
2022-11-28T20:16:19.902Z,17.60
2022-11-28T20:18:51.288Z,15.00
2022-11-28T20:21:22.976Z,21.40
2022-11-28T20:23:55.179Z,17.90
2022-11-28T20:26:30.769Z,16.40
2022-11-28T20:29:09.524Z,19.33
2022-11-28T20:34:25.179Z,17.03
2022-11-28T20:36:55.790Z,16.87
2022-11-28T20:39:54.998Z,14.47
2022-11-28T20:42:22.637Z,15.77
2022-11-28T20:44:53.456Z,18.43
2022-11-28T20:47:22.108Z,19.70
2022-11-28T20:49:54.239Z,19.77
2022-11-28T20:52:23.078Z,23.50
2022-11-28T20:59:59.398Z,36.70
2022-11-28T21:02:29.876Z,40.13
2022-11-28T21:05:00.946Z,23.83
2022-11-28T21:07:31.879Z,24.80
2022-11-28T21:10:03.528Z,28.23
2022-11-28T21:12:33.279Z,102.43
2022-11-28T21:15:05.797Z,43.13
2022-11-28T21:35:54.897Z,25.70
2022-11-28T21:38:22.906Z,25.60
2022-11-28T21:40:54.395Z,31.17
2022-11-28T21:43:22.877Z,20.67
2022-11-28T21:45:51.295Z,30.37
2022-11-28T21:48:20.535Z,21.23
2022-11-28T21:50:49.798Z,19.13
2022-11-28T21:58:26.660Z,43.03
2022-11-28T22:00:58.521Z,20.43
2022-11-28T22:03:26.752Z,17.30
2022-11-28T22:06:02.780Z,30.57
2022-11-28T22:08:31.876Z,16.77
2022-11-28T22:11:03.306Z,39.03
2022-11-28T22:13:32.077Z,19.27
2022-11-28T22:15:59.291Z,13.47
2022-11-28T22:23:38.822Z,13.30
2022-11-28T22:26:08.885Z,14.33
2022-11-28T22:28:37.769Z,14.17
2022-11-28T22:31:09.156Z,12.73
2022-11-28T22:33:38.620Z,13.83
2022-11-28T22:36:14.574Z,14.13
2022-11-28T22:41:36.868Z,12.33
2022-11-28T22:44:05.077Z,11.63
2022-11-28T22:46:57.578Z,11.50
2022-11-28T22:49:26.016Z,12.47
2022-11-28T22:51:58.136Z,9.97
2022-11-28T22:54:32.519Z,11.33
2022-11-28T22:57:01.084Z,12.07
2022-11-28T22:59:35.179Z,11.80
2022-11-28T23:04:48.258Z,12.20
2022-11-28T23:07:16.887Z,10.20
2022-11-28T23:09:44.432Z,12.77
2022-11-28T23:12:11.706Z,15.03
2022-11-28T23:14:39.449Z,17.77
2022-11-28T23:17:07.008Z,20.33
2022-11-28T23:19:35.147Z,19.40
2022-11-28T23:22:04.556Z,52.13
2022-11-28T23:27:20.137Z,250.03
2022-11-28T23:29:47.547Z,266.67
2022-11-28T23:32:15.078Z,305.60
2022-11-28T23:34:43.279Z,332.27
2022-11-28T23:37:11.469Z,51.83
2022-11-28T23:39:39.538Z,245.00
2022-11-28T23:42:08.017Z,430.73
2022-11-28T23:50:13.378Z,296.87
2022-11-28T23:52:41.069Z,197.83
2022-11-28T23:55:09.090Z,286.60
2022-11-28T23:57:37.279Z,112.70
